sensor_id;sensor_type;location;lat;lon;timestamp;pressure;altitude;pressure_sealevel;temperature;humidity
21395;BME280;10858;42.714;23.180;2022-08-19T00:01:46;94145.09;;;19.48;73.87
21395;BME280;10858;42.714;23.180;2022-08-19T00:04:15;94139.06;;;19.46;74.56
21395;BME280;10858;42.714;23.180;2022-08-19T00:06:44;94146.31;;;19.45;74.53
21395;BME280;10858;42.714;23.180;2022-08-19T00:09:12;94150.66;;;19.46;74.17
21395;BME280;10858;42.714;23.180;2022-08-19T00:11:40;94156.47;;;19.50;73.95
21395;BME280;10858;42.714;23.180;2022-08-19T00:14:08;94160.78;;;19.44;73.69
21395;BME280;10858;42.714;23.180;2022-08-19T00:16:37;94157.91;;;19.46;73.54
21395;BME280;10858;42.714;23.180;2022-08-19T00:19:04;94169.41;;;19.61;73.10
21395;BME280;10858;42.714;23.180;2022-08-19T00:21:30;94163.94;;;19.76;73.02
21395;BME280;10858;42.714;23.180;2022-08-19T00:23:57;94164.13;;;19.74;73.32
21395;BME280;10858;42.714;23.180;2022-08-19T00:26:28;94173.19;;;19.67;73.27
21395;BME280;10858;42.714;23.180;2022-08-19T00:28:54;94170.50;;;19.67;73.21
21395;BME280;10858;42.714;23.180;2022-08-19T00:31:21;94157.53;;;19.77;72.85
21395;BME280;10858;42.714;23.180;2022-08-19T00:33:48;94158.50;;;19.69;72.32
21395;BME280;10858;42.714;23.180;2022-08-19T00:36:16;94151.09;;;19.50;74.66
21395;BME280;10858;42.714;23.180;2022-08-19T00:38:43;94162.63;;;19.23;75.22
21395;BME280;10858;42.714;23.180;2022-08-19T00:41:14;94159.88;;;19.16;75.23
21395;BME280;10858;42.714;23.180;2022-08-19T00:43:42;94158.03;;;18.96;77.08
21395;BME280;10858;42.714;23.180;2022-08-19T00:46:08;94158.56;;;19.06;74.97
21395;BME280;10858;42.714;23.180;2022-08-19T00:48:35;94151.94;;;19.29;74.87
21395;BME280;10858;42.714;23.180;2022-08-19T00:51:03;94155.22;;;19.46;73.24
21395;BME280;10858;42.714;23.180;2022-08-19T00:53:31;94160.59;;;19.25;74.38
21395;BME280;10858;42.714;23.180;2022-08-19T00:56:00;94151.78;;;19.10;74.75
21395;BME280;10858;42.714;23.180;2022-08-19T00:58:30;94147.81;;;19.06;74.68
21395;BME280;10858;42.714;23.180;2022-08-19T01:00:56;94147.66;;;19.14;75.00
21395;BME280;10858;42.714;23.180;2022-08-19T01:03:23;94147.53;;;19.22;73.96
21395;BME280;10858;42.714;23.180;2022-08-19T01:05:51;94156.63;;;19.21;73.51
21395;BME280;10858;42.714;23.180;2022-08-19T01:08:51;94154.34;;;19.18;74.68
21395;BME280;10858;42.714;23.180;2022-08-19T01:11:21;94149.25;;;19.29;74.13
21395;BME280;10858;42.714;23.180;2022-08-19T01:13:52;94151.38;;;19.34;74.13
21395;BME280;10858;42.714;23.180;2022-08-19T01:16:25;94152.16;;;19.28;73.02
21395;BME280;10858;42.714;23.180;2022-08-19T01:18:52;94148.56;;;19.42;71.92
21395;BME280;10858;42.714;23.180;2022-08-19T01:23:54;94144.06;;;19.28;73.13
21395;BME280;10858;42.714;23.180;2022-08-19T01:26:27;94143.19;;;19.00;74.28
21395;BME280;10858;42.714;23.180;2022-08-19T01:28:59;94141.59;;;19.05;74.57
21395;BME280;10858;42.714;23.180;2022-08-19T01:31:29;94138.75;;;19.13;73.71
21395;BME280;10858;42.714;23.180;2022-08-19T01:33:59;94143.56;;;19.18;73.15
21395;BME280;10858;42.714;23.180;2022-08-19T01:36:36;94142.41;;;19.06;74.76
21395;BME280;10858;42.714;23.180;2022-08-19T01:39:08;94149.50;;;18.92;75.24
21395;BME280;10858;42.714;23.180;2022-08-19T01:41:48;94154.22;;;18.90;74.83
21395;BME280;10858;42.714;23.180;2022-08-19T01:44:20;94158.81;;;18.90;74.25
21395;BME280;10858;42.714;23.180;2022-08-19T01:46:55;94165.13;;;19.03;73.34
21395;BME280;10858;42.714;23.180;2022-08-19T01:49:33;94168.44;;;18.84;74.13
21395;BME280;10858;42.714;23.180;2022-08-19T01:52:04;94173.69;;;18.71;74.52
21395;BME280;10858;42.714;23.180;2022-08-19T01:54:49;94164.66;;;18.43;76.25
21395;BME280;10858;42.714;23.180;2022-08-19T01:57:24;94162.22;;;18.48;76.26
21395;BME280;10858;42.714;23.180;2022-08-19T01:59:53;94164.91;;;18.48;76.55
21395;BME280;10858;42.714;23.180;2022-08-19T02:02:22;94162.19;;;18.62;75.78
21395;BME280;10858;42.714;23.180;2022-08-19T02:04:53;94164.00;;;18.77;74.94
21395;BME280;10858;42.714;23.180;2022-08-19T02:07:21;94155.44;;;18.66;74.78
21395;BME280;10858;42.714;23.180;2022-08-19T02:09:58;94158.75;;;18.68;74.71
21395;BME280;10858;42.714;23.180;2022-08-19T07:12:54;94231.19;;;35.41;30.87
21395;BME280;10858;42.714;23.180;2022-08-19T07:15:24;94241.38;;;36.16;30.46
21395;BME280;10858;42.714;23.180;2022-08-19T07:17:55;94239.22;;;36.55;28.81
21395;BME280;10858;42.714;23.180;2022-08-19T07:20:28;94234.28;;;36.90;30.06
21395;BME280;10858;42.714;23.180;2022-08-19T07:22:54;94240.44;;;37.78;27.71
21395;BME280;10858;42.714;23.180;2022-08-19T07:25:30;94242.91;;;37.93;28.30
21395;BME280;10858;42.714;23.180;2022-08-19T07:27:57;94234.09;;;37.78;26.66
21395;BME280;10858;42.714;23.180;2022-08-19T07:30:27;94238.34;;;37.70;27.32
21395;BME280;10858;42.714;23.180;2022-08-19T07:32:56;94240.16;;;37.93;27.40
21395;BME280;10858;42.714;23.180;2022-08-19T07:35:24;94238.19;;;37.80;27.48
21395;BME280;10858;42.714;23.180;2022-08-19T07:38:01;94237.78;;;38.27;27.02
21395;BME280;10858;42.714;23.180;2022-08-19T07:40:29;94229.63;;;37.63;27.27
21395;BME280;10858;42.714;23.180;2022-08-19T07:43:01;94231.38;;;37.59;27.45
21395;BME280;10858;42.714;23.180;2022-08-19T07:45:31;94232.25;;;38.63;27.31
21395;BME280;10858;42.714;23.180;2022-08-19T07:51:23;94235.91;;;38.86;26.22
21395;BME280;10858;42.714;23.180;2022-08-19T07:53:49;94231.19;;;38.37;26.58
21395;BME280;10858;42.714;23.180;2022-08-19T07:56:20;94227.22;;;38.65;26.58
21395;BME280;10858;42.714;23.180;2022-08-19T07:58:50;94234.50;;;38.75;25.62
21395;BME280;10858;42.714;23.180;2022-08-19T08:01:20;94234.78;;;39.31;25.06
21395;BME280;10858;42.714;23.180;2022-08-19T08:03:48;94231.41;;;39.43;26.13
21395;BME280;10858;42.714;23.180;2022-08-19T08:06:38;94232.75;;;39.01;25.09
21395;BME280;10858;42.714;23.180;2022-08-19T08:09:31;94228.38;;;38.86;26.86
21395;BME280;10858;42.714;23.180;2022-08-19T08:12:07;94231.47;;;39.51;26.29
21395;BME280;10858;42.714;23.180;2022-08-19T08:14:52;94227.97;;;39.99;25.69
21395;BME280;10858;42.714;23.180;2022-08-19T08:17:23;94237.56;;;40.32;24.24
21395;BME280;10858;42.714;23.180;2022-08-19T08:19:55;94229.69;;;40.90;25.05
21395;BME280;10858;42.714;23.180;2022-08-19T08:22:25;94221.66;;;40.80;23.72
21395;BME280;10858;42.714;23.180;2022-08-19T08:25:16;94221.06;;;41.64;23.08
21395;BME280;10858;42.714;23.180;2022-08-19T08:27:47;94228.47;;;42.93;22.50
21395;BME280;10858;42.714;23.180;2022-08-19T08:30:34;94219.09;;;42.40;22.46
21395;BME280;10858;42.714;23.180;2022-08-19T08:33:38;94211.38;;;42.16;21.09
21395;BME280;10858;42.714;23.180;2022-08-19T08:36:32;94209.41;;;41.62;21.70
21395;BME280;10858;42.714;23.180;2022-08-19T08:39:02;94210.84;;;41.85;22.76
21395;BME280;10858;42.714;23.180;2022-08-19T08:41:54;94207.31;;;42.63;22.70
21395;BME280;10858;42.714;23.180;2022-08-19T08:47:16;94212.44;;;42.32;21.99
21395;BME280;10858;42.714;23.180;2022-08-19T08:53:56;94204.75;;;42.29;19.98
21395;BME280;10858;42.714;23.180;2022-08-19T08:57:17;94200.75;;;42.39;19.19
21395;BME280;10858;42.714;23.180;2022-08-19T09:00:42;94199.50;;;42.98;18.50
